createdAt,value
2018-08-20T00:02:03.879Z,94.10
2018-08-20T00:04:40.053Z,94.10
2018-08-20T00:07:11.396Z,94.10
2018-08-20T00:13:38.491Z,94.40
2018-08-20T00:16:48.267Z,94.40
2018-08-20T00:20:08.993Z,94.60
2018-08-20T00:23:09.092Z,95.20
2018-08-20T00:28:04.162Z,94.90
2018-08-20T00:31:14.502Z,95.10
2018-08-20T00:34:35.877Z,95.70
2018-08-20T00:37:57.323Z,95.70
2018-08-20T00:41:10.843Z,95.70
2018-08-20T00:44:18.404Z,95.90
2018-08-20T00:47:14.464Z,96.40
2018-08-20T00:50:33.125Z,96.80
2018-08-20T00:54:05.300Z,96.90
2018-08-20T00:57:09.754Z,97.10
2018-08-20T01:00:14.025Z,97.20
2018-08-20T01:07:11.990Z,97.30
2018-08-20T01:09:44.027Z,97.30
2018-08-20T01:12:16.792Z,97.50
2018-08-20T01:14:50.756Z,97.30
2018-08-20T01:17:23.118Z,97.60
2018-08-20T01:19:55.104Z,97.90
2018-08-20T01:22:27.053Z,98.10
2018-08-20T01:24:59.092Z,98.20
2018-08-20T01:27:31.519Z,98.60
2018-08-20T01:30:03.703Z,98.70
2018-08-20T01:32:36.319Z,98.90
2018-08-20T01:35:27.771Z,98.90
2018-08-20T01:38:00.383Z,99.20
2018-08-20T01:40:33.950Z,99.70
2018-08-20T01:43:06.377Z,99.90
2018-08-20T01:45:38.399Z,99.90
2018-08-20T01:48:10.680Z,99.90
2018-08-20T01:50:42.511Z,99.90
2018-08-20T01:53:16.320Z,99.90
2018-08-20T01:55:48.928Z,99.90
2018-08-20T01:58:21.381Z,99.90
2018-08-20T02:00:53.636Z,99.90
2018-08-20T02:03:26.750Z,99.90
2018-08-20T02:05:58.909Z,99.90
2018-08-20T02:08:30.780Z,99.90
2018-08-20T02:11:02.915Z,99.90
2018-08-20T02:13:35.164Z,99.90
2018-08-20T02:16:08.209Z,99.90
2018-08-20T02:18:40.638Z,99.90
2018-08-20T02:21:13.966Z,99.90
2018-08-20T02:23:48.156Z,99.90
2018-08-20T02:26:20.653Z,99.90
2018-08-20T02:28:52.777Z,99.90
2018-08-20T02:31:25.256Z,99.90
2018-08-20T02:33:57.890Z,99.90
2018-08-20T02:36:30.093Z,99.90
2018-08-20T02:39:02.557Z,99.90
2018-08-20T02:41:35.014Z,99.90
2018-08-20T02:44:07.355Z,99.90
2018-08-20T02:46:51.423Z,99.90
2018-08-20T02:49:23.724Z,99.90
2018-08-20T02:51:58.810Z,99.90
2018-08-20T02:54:31.808Z,99.90
2018-08-20T02:57:05.506Z,99.90
2018-08-20T02:59:37.910Z,99.90
2018-08-20T03:02:10.962Z,99.90
2018-08-20T03:04:43.077Z,99.90
2018-08-20T03:07:15.164Z,99.90
2018-08-20T03:09:47.540Z,99.90
2018-08-20T03:12:19.615Z,99.90
2018-08-20T03:14:52.821Z,99.90
2018-08-20T03:17:27.720Z,99.90
2018-08-20T03:20:01.783Z,99.90
2018-08-20T03:22:34.810Z,99.90
2018-08-20T03:25:07.946Z,99.90
2018-08-20T03:27:40.165Z,99.90
2018-08-20T03:30:12.824Z,99.90
2018-08-20T03:32:45.176Z,99.90
2018-08-20T03:35:17.263Z,99.90
2018-08-20T03:37:49.822Z,99.90
2018-08-20T03:40:22.426Z,99.90
2018-08-20T03:42:55.738Z,99.90
2018-08-20T03:45:27.882Z,99.90
2018-08-20T03:48:02.122Z,99.90
2018-08-20T03:50:35.435Z,99.90
2018-08-20T03:53:07.295Z,99.90
2018-08-20T03:55:39.257Z,99.90
2018-08-20T03:58:11.794Z,99.90
2018-08-20T04:00:44.185Z,99.90
2018-08-20T04:03:17.825Z,99.90
2018-08-20T04:05:51.252Z,99.90
2018-08-20T04:08:24.097Z,99.90
2018-08-20T04:10:56.980Z,99.90
2018-08-20T04:13:29.901Z,99.90
2018-08-20T04:16:01.859Z,99.90
2018-08-20T04:18:34.228Z,99.90
2018-08-20T04:21:07.124Z,99.90
2018-08-20T04:23:39.252Z,99.90
2018-08-20T04:26:11.805Z,99.90
2018-08-20T04:28:43.701Z,99.90
2018-08-20T04:31:15.560Z,99.90
2018-08-20T04:33:47.837Z,99.90
2018-08-20T04:36:19.916Z,99.90
2018-08-20T04:38:53.028Z,99.90
2018-08-20T04:41:24.880Z,99.90
2018-08-20T04:43:57.351Z,99.90
2018-08-20T04:46:30.406Z,99.90
2018-08-20T04:49:02.609Z,99.90
2018-08-20T04:51:35.106Z,99.90
2018-08-20T04:54:07.407Z,99.90
2018-08-20T04:56:40.559Z,99.90
2018-08-20T04:59:12.734Z,99.90
2018-08-20T05:01:45.714Z,99.90
2018-08-20T05:04:18.157Z,99.90
2018-08-20T05:06:50.283Z,99.90
2018-08-20T05:09:22.467Z,99.90
2018-08-20T05:11:54.500Z,99.90
2018-08-20T05:14:26.696Z,99.90
2018-08-20T05:16:59.219Z,99.90
2018-08-20T05:19:32.865Z,99.90
2018-08-20T05:22:05.313Z,99.90
2018-08-20T05:24:37.276Z,99.90
2018-08-20T05:27:10.345Z,99.90
2018-08-20T05:29:43.968Z,99.90
2018-08-20T05:32:15.784Z,99.90
2018-08-20T05:34:48.435Z,99.90
2018-08-20T05:37:21.153Z,99.90
2018-08-20T05:39:53.478Z,99.90
2018-08-20T05:42:25.235Z,99.90
2018-08-20T05:44:57.449Z,99.90
2018-08-20T05:47:29.745Z,99.90
2018-08-20T05:50:02.200Z,99.90
2018-08-20T05:52:34.406Z,99.90
2018-08-20T05:55:06.905Z,99.90
2018-08-20T05:57:39.137Z,99.90
2018-08-20T06:00:18.005Z,99.90
2018-08-20T06:02:49.964Z,99.90
2018-08-20T06:05:23.163Z,99.90
2018-08-20T06:07:55.313Z,99.90
2018-08-20T06:10:26.979Z,99.90
2018-08-20T06:12:59.219Z,99.90
2018-08-20T06:15:31.419Z,99.90
2018-08-20T06:18:04.054Z,99.90
2018-08-20T06:20:36.169Z,99.90
2018-08-20T06:23:08.616Z,99.90
2018-08-20T06:25:41.078Z,99.90
2018-08-20T06:28:13.083Z,99.90
2018-08-20T06:30:46.161Z,99.90
2018-08-20T06:33:18.489Z,99.90
2018-08-20T06:35:50.447Z,99.90
2018-08-20T06:38:22.177Z,99.90
2018-08-20T06:40:54.193Z,99.90
2018-08-20T06:43:26.206Z,99.90
2018-08-20T06:45:58.526Z,99.90
2018-08-20T06:48:31.919Z,99.90
2018-08-20T06:51:04.055Z,99.90
2018-08-20T06:53:35.918Z,99.90
2018-08-20T06:56:07.816Z,99.90
2018-08-20T06:58:39.692Z,99.90
2018-08-20T07:01:11.585Z,99.90
2018-08-20T07:03:43.207Z,99.90
2018-08-20T07:06:15.435Z,99.90
2018-08-20T07:08:47.023Z,99.90
2018-08-20T07:11:18.229Z,99.90
2018-08-20T07:13:49.347Z,99.90
2018-08-20T07:16:20.804Z,99.90
2018-08-20T07:18:53.389Z,99.90
2018-08-20T07:21:25.606Z,99.90
2018-08-20T07:23:57.756Z,99.90
2018-08-20T07:26:29.369Z,99.90
2018-08-20T07:29:01.204Z,99.90
2018-08-20T07:31:32.933Z,99.90
2018-08-20T07:34:04.868Z,99.90
2018-08-20T07:36:37.570Z,99.90
2018-08-20T07:39:09.550Z,99.90
2018-08-20T07:41:41.247Z,99.90
2018-08-20T07:44:12.842Z,99.90
2018-08-20T07:46:44.784Z,99.90
2018-08-20T07:49:19.726Z,99.90
2018-08-20T07:51:51.836Z,99.90
2018-08-20T07:54:23.838Z,99.90
2018-08-20T07:56:55.807Z,99.90
2018-08-20T07:59:27.654Z,99.90
2018-08-20T08:01:59.697Z,99.90
2018-08-20T08:04:31.804Z,99.90
2018-08-20T08:07:03.473Z,99.90
2018-08-20T08:09:35.486Z,99.90
2018-08-20T08:12:07.692Z,99.90
2018-08-20T08:14:40.028Z,99.90
2018-08-20T08:17:12.071Z,99.90
2018-08-20T08:19:44.203Z,99.90
2018-08-20T08:22:16.766Z,99.90
2018-08-20T08:24:49.034Z,99.90
2018-08-20T08:27:21.083Z,99.90
2018-08-20T08:29:52.981Z,99.90
2018-08-20T08:32:24.997Z,99.90
2018-08-20T08:34:56.844Z,99.90
2018-08-20T08:37:28.793Z,99.90
2018-08-20T08:40:00.690Z,99.90
2018-08-20T08:42:33.429Z,99.90
2018-08-20T08:45:06.531Z,99.90
2018-08-20T08:47:38.547Z,99.90
2018-08-20T08:50:11.082Z,99.90
2018-08-20T08:52:43.044Z,99.90
2018-08-20T08:55:15.068Z,99.90
2018-08-20T08:57:46.859Z,99.90
2018-08-20T09:00:21.345Z,99.90
2018-08-20T09:02:53.253Z,99.90
2018-08-20T09:05:25.155Z,99.90
2018-08-20T09:07:57.102Z,99.90
2018-08-20T09:10:29.336Z,99.90
2018-08-20T09:13:00.885Z,99.90
2018-08-20T09:15:33.140Z,99.90
2018-08-20T09:18:06.672Z,99.90
2018-08-20T09:20:39.642Z,99.90
2018-08-20T09:23:11.653Z,99.10
2018-08-20T09:25:43.913Z,99.90
2018-08-20T09:28:15.691Z,99.20
2018-08-20T09:30:48.006Z,99.30
2018-08-20T09:33:19.689Z,98.80
2018-08-20T09:35:51.290Z,98.90
2018-08-20T09:38:26.091Z,98.40
2018-08-20T09:40:58.063Z,97.90
2018-08-20T09:43:30.031Z,97.80
2018-08-20T09:46:02.112Z,98.00
2018-08-20T09:48:34.078Z,96.50
2018-08-20T09:51:09.950Z,97.30
2018-08-20T09:53:42.292Z,96.20
2018-08-20T09:56:14.225Z,95.30
2018-08-20T09:58:45.879Z,95.60
2018-08-20T10:01:18.087Z,94.70
2018-08-20T10:03:50.046Z,93.60
2018-08-20T10:06:22.273Z,94.00
2018-08-20T10:08:54.457Z,94.10
2018-08-20T10:11:27.413Z,93.10
2018-08-20T10:13:59.243Z,93.10
2018-08-20T10:16:32.077Z,93.10
2018-08-20T10:19:03.773Z,92.40
2018-08-20T10:21:35.983Z,91.70
2018-08-20T10:24:07.992Z,91.80
2018-08-20T10:26:40.831Z,91.80
2018-08-20T10:29:14.201Z,91.10
2018-08-20T10:31:46.250Z,90.50
2018-08-20T10:34:18.018Z,90.40
2018-08-20T10:36:51.110Z,90.40
2018-08-20T10:39:23.490Z,89.00
2018-08-20T10:41:55.716Z,89.50
2018-08-20T10:44:29.745Z,90.10
2018-08-20T10:47:01.563Z,87.40
2018-08-20T10:49:34.134Z,86.90
2018-08-20T10:52:06.790Z,86.60
2018-08-20T10:54:39.520Z,86.50
2018-08-20T10:57:11.876Z,86.80
2018-08-20T10:59:43.488Z,85.20
2018-08-20T11:02:14.863Z,83.30
2018-08-20T11:04:46.907Z,82.70
2018-08-20T11:07:18.211Z,81.90
2018-08-20T11:09:49.460Z,81.30
2018-08-20T11:12:20.673Z,80.80
2018-08-20T11:14:51.820Z,81.80
2018-08-20T11:17:23.215Z,80.20
2018-08-20T11:19:54.648Z,79.70
2018-08-20T11:22:25.954Z,81.10
2018-08-20T11:24:57.003Z,79.60
2018-08-20T11:27:28.234Z,77.30
2018-08-20T11:29:59.554Z,77.10
2018-08-20T11:32:30.793Z,75.80
2018-08-20T11:35:02.448Z,73.10
2018-08-20T11:37:33.991Z,74.50
2018-08-20T11:40:06.587Z,75.10
2018-08-20T11:42:37.863Z,75.90
2018-08-20T11:45:11.890Z,76.20
2018-08-20T11:47:43.912Z,74.00
2018-08-20T11:50:15.197Z,73.30
2018-08-20T11:52:47.017Z,73.40
2018-08-20T11:55:18.207Z,73.50
2018-08-20T11:57:49.351Z,72.60
2018-08-20T12:00:20.660Z,73.00
2018-08-20T12:02:52.000Z,72.70
2018-08-20T12:05:23.144Z,72.50
2018-08-20T12:07:54.491Z,71.50
2018-08-20T12:10:27.179Z,68.80
2018-08-20T12:12:58.258Z,71.30
2018-08-20T12:15:29.251Z,70.70
2018-08-20T12:18:00.707Z,70.40
2018-08-20T12:20:31.898Z,68.30
2018-08-20T12:23:04.018Z,67.50
2018-08-20T12:25:35.191Z,69.20
2018-08-20T12:28:06.638Z,67.70
2018-08-20T12:30:38.991Z,68.50
2018-08-20T12:33:10.323Z,67.70
2018-08-20T12:35:41.820Z,67.40
2018-08-20T12:38:13.127Z,67.00
2018-08-20T12:40:44.484Z,66.20
2018-08-20T12:43:15.549Z,65.30
2018-08-20T12:49:12.180Z,67.50
2018-08-20T12:51:43.740Z,66.40
2018-08-20T12:54:38.967Z,65.90
2018-08-20T12:57:10.180Z,67.20
2018-08-20T12:59:41.532Z,66.40
2018-08-20T13:02:13.184Z,67.50
2018-08-20T13:04:45.160Z,67.30
2018-08-20T13:07:16.559Z,67.20
2018-08-20T13:09:47.859Z,67.60
2018-08-20T13:12:19.461Z,66.40
2018-08-20T13:14:51.155Z,66.60
2018-08-20T13:17:22.404Z,66.20
2018-08-20T13:19:53.759Z,67.60
2018-08-20T13:22:25.207Z,67.40
2018-08-20T13:24:57.084Z,69.00
2018-08-20T13:27:28.328Z,68.40
2018-08-20T13:29:59.691Z,67.00
2018-08-20T13:32:30.936Z,67.80
2018-08-20T13:35:02.179Z,67.50
2018-08-20T13:37:33.384Z,65.40
2018-08-20T13:40:04.611Z,65.80
2018-08-20T13:42:36.219Z,66.40
2018-08-20T13:45:07.572Z,65.20
2018-08-20T13:47:38.879Z,64.80
2018-08-20T13:50:16.253Z,67.00
2018-08-20T13:52:48.317Z,68.20
2018-08-20T13:55:20.543Z,66.50
2018-08-20T13:57:51.939Z,66.30
2018-08-20T14:00:23.240Z,65.30
2018-08-20T14:02:54.478Z,63.20
2018-08-20T14:05:25.843Z,64.10
2018-08-20T14:07:57.227Z,63.80
2018-08-20T14:10:28.223Z,64.30
2018-08-20T14:12:59.424Z,64.90
2018-08-20T14:15:30.657Z,64.30
2018-08-20T14:18:02.074Z,63.70
2018-08-20T14:20:33.408Z,64.50
2018-08-20T14:23:04.592Z,64.60
2018-08-20T14:25:36.157Z,64.70
2018-08-20T14:28:07.392Z,64.40
2018-08-20T14:30:38.747Z,64.40
2018-08-20T14:33:10.424Z,63.80
2018-08-20T14:35:41.781Z,64.10
2018-08-20T14:38:12.943Z,65.80
2018-08-20T14:40:44.236Z,65.80
2018-08-20T14:43:15.496Z,66.20
2018-08-20T14:45:52.055Z,66.00
2018-08-20T14:48:23.968Z,67.40
2018-08-20T14:50:55.540Z,67.40
2018-08-20T14:53:26.796Z,66.40
2018-08-20T14:55:58.093Z,66.80
2018-08-20T14:58:29.378Z,65.80
2018-08-20T15:01:00.624Z,67.10
2018-08-20T15:03:31.771Z,67.00
2018-08-20T15:06:02.924Z,67.00
2018-08-20T15:08:35.994Z,67.50
2018-08-20T15:11:07.052Z,68.60
2018-08-20T15:13:38.504Z,68.00
2018-08-20T15:16:10.157Z,67.80
2018-08-20T15:18:41.383Z,67.90
2018-08-20T15:21:12.840Z,66.90
2018-08-20T15:23:44.349Z,68.00
2018-08-20T15:26:15.839Z,68.80
2018-08-20T15:28:47.159Z,68.20
2018-08-20T15:31:18.336Z,67.60
2018-08-20T15:33:49.376Z,68.00
2018-08-20T15:36:20.585Z,67.10
2018-08-20T15:38:51.932Z,67.70
2018-08-20T15:41:23.392Z,68.30
2018-08-20T15:43:54.876Z,66.80
2018-08-20T15:46:26.296Z,67.60
2018-08-20T15:48:57.496Z,68.40
2018-08-20T15:51:28.943Z,67.80
2018-08-20T15:54:00.272Z,68.70
2018-08-20T15:56:31.995Z,68.80
2018-08-20T15:59:03.039Z,69.70
2018-08-20T16:01:34.276Z,69.10
2018-08-20T16:04:05.481Z,68.30
2018-08-20T16:06:43.016Z,68.80
2018-08-20T16:09:14.342Z,68.90
2018-08-20T16:11:45.765Z,68.60
2018-08-20T16:14:17.231Z,68.50
2018-08-20T16:16:48.245Z,69.10
2018-08-20T16:19:19.457Z,69.20
2018-08-20T16:21:51.148Z,68.60
2018-08-20T16:24:22.200Z,68.80
2018-08-20T16:26:53.385Z,68.70
2018-08-20T16:29:24.602Z,69.30
2018-08-20T16:31:55.684Z,70.20
2018-08-20T16:34:26.815Z,70.70
2018-08-20T16:36:58.271Z,70.90
2018-08-20T16:39:29.531Z,70.20
2018-08-20T16:42:00.607Z,70.20
2018-08-20T16:44:32.111Z,70.40
2018-08-20T16:47:03.559Z,70.60
2018-08-20T16:49:34.960Z,71.00
2018-08-20T16:52:07.156Z,70.20
2018-08-20T16:54:38.288Z,70.30
2018-08-20T16:57:09.810Z,70.00
2018-08-20T16:59:40.867Z,70.60
2018-08-20T17:02:18.228Z,70.70
2018-08-20T17:04:50.327Z,70.80
2018-08-20T17:07:21.537Z,70.70
2018-08-20T17:09:52.919Z,71.30
2018-08-20T17:12:24.580Z,72.40
2018-08-20T17:14:56.168Z,71.00
2018-08-20T17:17:27.280Z,70.60
2018-08-20T17:19:58.723Z,70.50
2018-08-20T17:22:30.093Z,71.70
2018-08-20T17:25:01.698Z,73.20
2018-08-20T17:27:33.296Z,72.10
2018-08-20T17:30:11.134Z,71.80
2018-08-20T17:32:42.606Z,72.50
2018-08-20T17:35:13.935Z,72.20
2018-08-20T17:37:45.567Z,73.30
2018-08-20T17:40:16.955Z,73.70
2018-08-20T17:42:48.260Z,73.80
2018-08-20T17:45:19.898Z,73.60
2018-08-20T17:47:51.256Z,73.40
2018-08-20T17:50:48.215Z,73.00
2018-08-20T17:53:19.538Z,73.20
2018-08-20T17:55:50.992Z,73.50
2018-08-20T17:58:22.152Z,73.70
2018-08-20T18:00:53.589Z,74.60
2018-08-20T18:03:28.933Z,75.10
2018-08-20T18:06:04.178Z,76.20
2018-08-20T18:08:36.000Z,76.80
2018-08-20T18:11:08.164Z,76.20
2018-08-20T18:13:48.938Z,76.70
2018-08-20T18:16:23.146Z,77.20
2018-08-20T18:18:54.460Z,77.00
2018-08-20T18:21:25.869Z,77.30
2018-08-20T18:23:57.042Z,77.50
2018-08-20T18:26:49.656Z,77.90
2018-08-20T18:29:20.943Z,78.10
2018-08-20T18:32:00.673Z,78.10
2018-08-20T18:34:31.776Z,78.90
2018-08-20T18:37:06.296Z,79.30
2018-08-20T18:39:37.760Z,79.40
2018-08-20T18:42:13.211Z,79.70
2018-08-20T18:44:44.652Z,80.00
2018-08-20T18:47:17.055Z,80.20
2018-08-20T18:49:54.255Z,80.40
2018-08-20T18:52:28.384Z,80.10
2018-08-20T18:55:00.424Z,80.50
2018-08-20T18:57:33.470Z,81.00
2018-08-20T19:00:07.108Z,81.20
2018-08-20T19:02:47.231Z,81.00
2018-08-20T19:05:19.616Z,82.10
2018-08-20T19:07:51.206Z,82.00
2018-08-20T19:10:33.520Z,82.20
2018-08-20T19:13:04.771Z,82.20
2018-08-20T19:15:42.553Z,82.50
2018-08-20T19:18:18.295Z,82.60
2018-08-20T19:20:50.225Z,82.60
2018-08-20T19:23:21.569Z,83.30
2018-08-20T19:25:52.805Z,83.40
2018-08-20T19:28:25.236Z,83.60
2018-08-20T19:30:57.277Z,83.70
2018-08-20T19:33:30.673Z,84.20
2018-08-20T19:36:02.228Z,84.80
2018-08-20T19:38:33.350Z,84.70
2018-08-20T19:41:09.348Z,85.60
2018-08-20T19:43:45.513Z,85.70
2018-08-20T19:46:25.219Z,86.00
2018-08-20T19:49:01.281Z,86.60
2018-08-20T19:51:35.146Z,86.50
2018-08-20T19:54:07.211Z,87.30
2018-08-20T19:56:38.500Z,86.90
2018-08-20T19:59:10.732Z,87.20
2018-08-20T20:01:42.527Z,87.50
2018-08-20T20:04:16.333Z,88.40
2018-08-20T20:06:47.690Z,88.30
2018-08-20T20:09:19.003Z,88.50
2018-08-20T20:11:51.718Z,89.50
2018-08-20T20:14:22.913Z,89.20
2018-08-20T20:16:55.433Z,89.00
2018-08-20T20:19:27.337Z,90.00
2018-08-20T20:21:58.679Z,89.60
2018-08-20T20:24:29.891Z,89.50
2018-08-20T20:27:01.041Z,90.00
2018-08-20T20:29:32.076Z,90.10
2018-08-20T20:32:03.548Z,90.20
2018-08-20T20:34:34.895Z,90.40
2018-08-20T20:37:06.572Z,90.60
2018-08-20T20:39:40.850Z,90.70
2018-08-20T20:42:12.503Z,90.90
2018-08-20T20:44:44.494Z,90.90
2018-08-20T20:47:15.743Z,90.80
2018-08-20T20:49:47.079Z,90.90
2018-08-20T20:52:18.759Z,91.20
2018-08-20T20:54:49.919Z,91.20
2018-08-20T20:57:21.095Z,91.30
2018-08-20T20:59:52.303Z,91.40
2018-08-20T21:02:23.484Z,91.50
2018-08-20T21:04:59.056Z,91.90
2018-08-20T21:07:34.458Z,91.80
2018-08-20T21:10:06.726Z,92.10
2018-08-20T21:12:38.059Z,92.10
2018-08-20T21:15:10.061Z,92.70
2018-08-20T21:17:41.285Z,92.50
2018-08-20T21:20:12.577Z,92.50
2018-08-20T21:22:44.019Z,92.80
2018-08-20T21:25:15.207Z,92.70
2018-08-20T21:27:47.055Z,92.90
2018-08-20T21:30:18.332Z,93.10
2018-08-20T21:32:49.356Z,93.20
2018-08-20T21:35:21.995Z,93.10
2018-08-20T21:37:53.587Z,93.10
2018-08-20T21:40:30.755Z,93.00
2018-08-20T21:43:01.977Z,93.20
2018-08-20T21:45:33.437Z,93.20
2018-08-20T21:48:04.785Z,93.30
2018-08-20T21:50:35.962Z,93.80
2018-08-20T21:53:07.212Z,93.70
2018-08-20T21:55:38.504Z,93.90
2018-08-20T21:58:09.711Z,93.80
2018-08-20T22:00:40.910Z,94.00
2018-08-20T22:03:13.748Z,94.00
2018-08-20T22:05:45.043Z,94.40
2018-08-20T22:08:16.071Z,94.50
2018-08-20T22:10:47.224Z,94.30
2018-08-20T22:13:19.071Z,94.30
2018-08-20T22:16:11.341Z,94.20
2018-08-20T22:18:43.907Z,94.40
2018-08-20T22:21:18.631Z,94.40
2018-08-20T22:23:50.208Z,94.50
2018-08-20T22:26:22.358Z,94.70
2018-08-20T22:28:53.947Z,94.90
2018-08-20T22:31:25.267Z,95.40
2018-08-20T22:34:01.456Z,95.60
2018-08-20T22:36:33.326Z,95.70
2018-08-20T22:39:05.654Z,96.00
2018-08-20T22:41:36.736Z,96.10
2018-08-20T22:44:08.598Z,96.10
2018-08-20T22:46:40.164Z,96.00
2018-08-20T22:49:11.971Z,96.60
2018-08-20T22:51:43.217Z,96.40
2018-08-20T22:54:16.263Z,97.00
2018-08-20T22:56:47.636Z,96.70
2018-08-20T22:59:18.997Z,96.80
2018-08-20T23:01:50.757Z,97.00
2018-08-20T23:04:21.836Z,97.00
2018-08-20T23:06:53.560Z,97.20
2018-08-20T23:09:34.535Z,97.50
2018-08-20T23:12:05.725Z,97.40
2018-08-20T23:14:37.063Z,97.50
2018-08-20T23:17:08.324Z,97.60
2018-08-20T23:20:42.535Z,97.90
2018-08-20T23:23:14.707Z,97.90
2018-08-20T23:25:48.043Z,97.90
2018-08-20T23:28:19.242Z,98.00
2018-08-20T23:30:54.879Z,97.70
2018-08-20T23:33:26.266Z,97.90
2018-08-20T23:35:57.664Z,97.90
2018-08-20T23:38:29.012Z,98.20
2018-08-20T23:41:00.412Z,98.30
2018-08-20T23:43:31.955Z,98.30
2018-08-20T23:46:04.121Z,98.70
2018-08-20T23:48:35.371Z,98.70
2018-08-20T23:51:07.140Z,99.20
2018-08-20T23:53:38.671Z,98.90
2018-08-20T23:56:09.882Z,99.10
2018-08-20T23:58:40.939Z,99.20
